Carmel, IN (46032)

8:17 AM EDT on April 30, 2017 (GMT -0400)
Dorset Boulevard | | Change Station

Elev 872 ft 39.97 °N, 86.17 °W | Updated 3 minutes ago

Overcast
Overcast
56.1 °F
Feels Like 56.1 °F
N
0.6
Wind Variable Wind from South
Gusts 1.9 mph

Today
High -- | Low -- °F
--% Chance of Precip.
Yesterday
High -- | Low -- °F
Precip. -- in
Pressure 29.86 in
Visibility 5.0 miles
Clouds Mostly Cloudy 400 ft
Mostly Cloudy 5000 ft
Overcast 6500 ft
Dew Point 55 °F
Humidity 97%
Rainfall 0.07 in
Snow Depth Not available.
6:45 AM 8:38 PM
Waxing Crescent, 22% visible
METAR KTYQ 301155Z AUTO 07005KT 5SM BR BKN004 BKN050 OVC065 13/12 A2986 RMK AO2 70150 T01260122 10126 20115
Pressure 29.86 in
Visibility 5.0 miles
Clouds Mostly Cloudy 400 ft
Mostly Cloudy 5000 ft
Overcast 6500 ft
Dew Point 55 °F
Humidity 97%
Rainfall 0.07 in
Snow Depth Not available.
6:45 AM 8:38 PM
Waxing Crescent, 22% visible
METAR KTYQ 301155Z AUTO 07005KT 5SM BR BKN004 BKN050 OVC065 13/12 A2986 RMK AO2 70150 T01260122 10126 20115

Get Severe Weather Alerts

Thanks for signing up!

Be on the lookout for a verification email in your inbox.

You'll start receiving the daily forecast at 8 AM.

×

10-Day Weather Forecast

Almanac

Astronomy

Apr. 30, 2017 Rise Set
Actual Time
Civil Twilight
Nautical Twilight
Astronomical Twilight
Moon
Length of Visible Light
Length of Day
Tomorrow will be .
, % of the Moon is Illuminated

Today's Extremes

State Highs State Lows

Community

WunderPhotos

WunderBlog® & News

Nearby

Air Quality

  Air Quality AQ Index Pollutant
Not available.

Snow Depth

Station Depth Elevation

Earthquake Activity

City Distance Mag. Time & Date
Minimum magnitude displayed is 2.5.

Coastal Water Temperatures

Place Temperature

Stations

Nearby Weather Stations

Station Location Temp. Windchill Dew Point Humidity Wind Precip. Elev Updated Type
                   

Watches & Warnings

There are currently no watches in effect.